Mendota, Minnesota
Current Conditions -  °F | °C
As of 8:53 PM on Tuesday 21 Oct 2014 (Local Time) from KMSP Reporting Station
Clear Clear  
Wind Chill: 50°   Ceiling: Unl
Heat Index: 50°   Visibility: 10mi
Dew Point: 38°   Wind: 13mph
Humidity: 63%   Direction: 130°SE
Pressure: 30.16"   Gusts: NA
Location:  44.89°N, 93.16°W
Report Text: KMSP 220153Z 13011KT 10SM CLR 10/03 A3016 RMK AO2 SLP218 T01000033
Loading
Personal Weather Stations






























Interactive Weather Map
Tropical Storm Tracking
New forecast layout! Learn more

10-Day Weather Forecast

Advertisements
Track Severe Weather on mobile